Time;durP1;ratioP1;P1;durP2;ratioP2;P2;SDS_P1;SDS_P2;PMS_P1;PMS_P2;Temp;Humidity;BMP_temperature;BMP_pressure;BME280_temperature;BME280_humidity;BME280_pressure;Samples;Min_cycle;Max_cycle;Signal;HPM_P1;HPM_P2
2021/01/21 00:00:36;;;;;;;121.20;70.80;;;17.10;48.30;;;;;;5111481;28;20431;-61
2021/01/21 00:03:01;;;;;;;123.57;72.55;;;17.20;48.30;;;;;;5111343;28;20031;-60
2021/01/21 00:05:27;;;;;;;125.20;69.50;;;17.30;48.30;;;;;;5111388;28;20024;-60
2021/01/21 00:07:53;;;;;;;117.97;68.25;;;17.40;48.20;;;;;;5112447;28;20035;-60
2021/01/21 00:10:18;;;;;;;123.22;68.65;;;17.50;48.00;;;;;;5113325;28;20020;-60
2021/01/21 00:12:44;;;;;;;115.05;68.75;;;17.60;48.10;;;;;;5116561;28;20516;-60
2021/01/21 00:15:10;;;;;;;109.97;61.90;;;17.60;48.20;;;;;;5116878;28;20019;-60
2021/01/21 00:17:35;;;;;;;110.57;60.78;;;17.60;48.20;;;;;;5115532;28;20055;-60
2021/01/21 00:20:01;;;;;;;120.28;64.45;;;17.60;48.20;;;;;;5117590;28;20031;-60
2021/01/21 00:22:27;;;;;;;106.45;60.72;;;17.60;48.40;;;;;;5117722;28;20118;-60
2021/01/21 00:24:53;;;;;;;105.78;61.10;;;17.60;48.50;;;;;;5117464;28;20051;-59
2021/01/21 00:27:18;;;;;;;98.90;57.03;;;17.60;48.70;;;;;;5117316;28;20462;-60
2021/01/21 00:29:44;;;;;;;106.28;59.53;;;17.50;48.90;;;;;;5117494;27;20388;-59
2021/01/21 00:32:10;;;;;;;105.07;57.40;;;17.60;48.80;;;;;;5116712;28;20434;-60
2021/01/21 00:34:35;;;;;;;100.47;56.15;;;17.80;48.60;;;;;;5116043;28;20370;-60
2021/01/21 00:37:01;;;;;;;101.35;58.53;;;17.90;48.00;;;;;;5117074;28;20020;-59
2021/01/21 00:39:27;;;;;;;104.22;56.90;;;17.90;49.30;;;;;;5117352;28;20532;-60
2021/01/21 00:41:53;;;;;;;100.68;54.40;;;17.90;48.70;;;;;;5116959;28;20035;-59
2021/01/21 00:44:19;;;;;;;101.97;56.22;;;17.80;48.90;;;;;;5117114;28;20051;-59
2021/01/21 00:46:44;;;;;;;99.00;54.17;;;17.60;49.00;;;;;;5117025;28;20024;-59
2021/01/21 00:49:10;;;;;;;88.07;53.47;;;17.60;49.20;;;;;;5117006;28;20048;-59
2021/01/21 00:51:36;;;;;;;91.70;51.55;;;17.60;49.40;;;;;;5117225;28;20423;-60
2021/01/21 00:54:01;;;;;;;90.03;52.42;;;17.50;49.50;;;;;;5116935;28;20419;-59
2021/01/21 00:56:27;;;;;;;91.35;53.63;;;17.40;49.70;;;;;;5116914;28;20027;-59
2021/01/21 00:58:53;;;;;;;92.30;51.50;;;17.40;49.70;;;;;;5116816;28;20065;-59
2021/01/21 01:01:18;;;;;;;93.22;50.70;;;17.30;49.80;;;;;;5116701;28;20035;-59
2021/01/21 01:03:44;;;;;;;87.55;51.92;;;17.30;49.90;;;;;;5116652;28;20045;-60
2021/01/21 01:06:10;;;;;;;83.15;49.97;;;17.30;50.00;;;;;;5116789;28;20062;-59
2021/01/21 01:08:36;;;;;;;83.70;49.80;;;17.30;50.10;;;;;;5116672;28;20031;-59
2021/01/21 01:11:02;;;;;;;81.88;49.58;;;17.20;50.10;;;;;;5116509;28;20043;-60
2021/01/21 01:13:28;;;;;;;88.18;49.00;;;17.20;50.20;;;;;;5116591;28;20432;-60
2021/01/21 01:15:53;;;;;;;76.18;46.28;;;17.20;50.30;;;;;;5116644;28;20051;-59
2021/01/21 01:18:19;;;;;;;74.10;43.90;;;17.20;50.40;;;;;;5116422;28;20386;-60
2021/01/21 01:20:45;;;;;;;72.93;44.03;;;17.20;51.20;;;;;;5116174;28;20461;-59
2021/01/21 01:23:11;;;;;;;80.38;47.17;;;17.10;50.60;;;;;;5115112;27;20031;-59
2021/01/21 01:25:36;;;;;;;76.60;46.47;;;17.10;50.60;;;;;;5116626;28;20035;-60
2021/01/21 01:28:02;;;;;;;73.93;44.20;;;17.10;50.60;;;;;;5116293;28;20469;-59
2021/01/21 01:30:28;;;;;;;70.80;44.58;;;17.10;50.60;;;;;;5116358;28;20019;-59
2021/01/21 01:32:54;;;;;;;78.18;42.65;;;17.10;50.60;;;;;;5116102;28;20034;-60
2021/01/21 01:35:20;;;;;;;73.88;42.90;;;17.10;50.60;;;;;;5116608;28;20110;-59
2021/01/21 01:37:45;;;;;;;75.03;44.15;;;17.10;50.60;;;;;;5115832;28;20035;-59
2021/01/21 01:40:13;;;;;;;72.75;43.10;;;17.00;50.70;;;;;;5116011;28;20039;-59
2021/01/21 01:42:40;;;;;;;71.75;43.20;;;17.10;50.70;;;;;;5116011;28;20038;-59
2021/01/21 01:45:07;;;;;;;68.88;40.47;;;17.20;50.60;;;;;;5115970;28;20027;-59
2021/01/21 01:47:33;;;;;;;68.15;41.55;;;17.20;51.00;;;;;;5115845;28;20376;-60
2021/01/21 01:50:00;;;;;;;70.05;40.10;;;17.20;50.40;;;;;;5115576;27;20024;-59
2021/01/21 01:52:29;;;;;;;60.40;39.78;;;17.20;50.30;;;;;;5115782;28;20028;-59
2021/01/21 01:54:55;;;;;;;70.97;41.00;;;17.20;50.50;;;;;;5116030;28;20110;-59
2021/01/21 01:57:22;;;;;;;70.70;40.63;;;17.20;50.60;;;;;;5115753;28;20112;-59
2021/01/21 01:59:57;;;;;;;67.00;40.15;;;17.10;50.60;;;;;;5115811;28;20023;-59
2021/01/21 02:02:23;;;;;;;67.82;38.97;;;17.10;50.60;;;;;;5115609;28;20044;-60
2021/01/21 02:04:49;;;;;;;60.40;37.13;;;17.10;50.50;;;;;;5115892;28;20506;-59
2021/01/21 02:07:14;;;;;;;61.00;38.22;;;17.20;50.50;;;;;;5115318;28;20376;-59
2021/01/21 02:09:40;;;;;;;60.90;38.67;;;17.30;50.30;;;;;;5115524;28;20028;-59
2021/01/21 02:12:34;;;;;;;59.58;37.08;;;17.40;50.10;;;;;;5115143;28;20070;-59
2021/01/21 02:15:29;;;;;;;58.60;36.47;;;17.50;50.00;;;;;;5113362;28;20032;-59
2021/01/21 02:18:26;;;;;;;60.80;34.17;;;17.60;49.80;;;;;;5113979;28;20027;-60
2021/01/21 02:21:01;;;;;;;59.22;36.75;;;17.70;49.60;;;;;;5114524;28;20516;-59
2021/01/21 02:23:54;;;;;;;56.15;34.90;;;17.80;49.40;;;;;;5115429;28;20137;-59
2021/01/21 02:26:36;;;;;;;59.60;35.92;;;17.90;49.30;;;;;;5114869;28;20059;-59
2021/01/21 02:29:15;;;;;;;58.65;36.00;;;17.90;49.30;;;;;;5115140;28;20032;-59
2021/01/21 02:32:07;;;;;;;57.33;34.40;;;17.90;49.50;;;;;;5115089;28;20431;-59
2021/01/21 02:34:36;;;;;;;56.25;34.75;;;17.80;49.50;;;;;;5114847;28;20370;-59
2021/01/21 02:37:02;;;;;;;60.83;33.58;;;17.90;49.50;;;;;;5114682;28;20031;-59
2021/01/21 02:39:29;;;;;;;54.38;33.75;;;17.80;49.50;;;;;;5114569;28;20114;-60
2021/01/21 02:41:55;;;;;;;52.15;32.35;;;17.80;49.60;;;;;;5114774;28;20032;-59
2021/01/21 02:44:21;;;;;;;51.15;33.05;;;17.70;49.60;;;;;;5114527;28;20035;-59
2021/01/21 02:46:48;;;;;;;51.53;30.92;;;17.70;49.70;;;;;;5115029;28;20019;-59
2021/01/21 02:49:15;;;;;;;51.50;31.77;;;17.70;49.80;;;;;;5114446;28;20446;-59
2021/01/21 02:52:02;;;;;;;47.63;29.70;;;17.60;49.90;;;;;;5114624;28;20027;-60
2021/01/21 02:54:55;;;;;;;47.40;30.77;;;17.60;50.10;;;;;;5114431;28;20431;-59
2021/01/21 02:57:28;;;;;;;46.30;29.42;;;17.70;50.60;;;;;;5114859;28;20377;-59
2021/01/21 03:00:04;;;;;;;48.42;30.98;;;17.80;49.70;;;;;;5114617;28;20024;-59
2021/01/21 03:02:32;;;;;;;50.90;30.05;;;17.80;49.50;;;;;;5114131;28;20044;-60
2021/01/21 03:04:59;;;;;;;45.85;29.50;;;17.90;49.60;;;;;;5114617;28;20082;-59
2021/01/21 03:07:25;;;;;;;46.60;29.95;;;17.80;49.90;;;;;;5114545;28;20419;-59
2021/01/21 03:09:52;;;;;;;51.38;29.27;;;17.70;50.00;;;;;;5114106;28;20424;-59
2021/01/21 03:12:19;;;;;;;49.60;29.25;;;17.60;50.10;;;;;;5114501;28;20047;-59
2021/01/21 03:14:46;;;;;;;45.85;29.48;;;17.50;50.20;;;;;;5114024;28;20106;-60
2021/01/21 03:17:12;;;;;;;52.00;30.20;;;17.50;50.30;;;;;;5114952;28;20110;-59
2021/01/21 03:19:38;;;;;;;47.33;30.15;;;17.40;50.40;;;;;;5114022;28;20123;-59
2021/01/21 03:22:04;;;;;;;49.63;29.67;;;17.40;50.60;;;;;;5113913;28;20036;-59
2021/01/21 03:24:30;;;;;;;51.63;30.65;;;17.40;50.70;;;;;;5114361;28;20077;-59
2021/01/21 03:26:55;;;;;;;50.78;30.10;;;17.30;50.80;;;;;;5114082;28;20449;-59
2021/01/21 03:29:21;;;;;;;43.88;27.27;;;17.20;50.80;;;;;;5114057;28;20032;-60
2021/01/21 03:31:47;;;;;;;44.97;28.17;;;17.20;50.90;;;;;;5113952;28;20031;-59
2021/01/21 03:34:12;;;;;;;42.05;27.17;;;17.20;51.00;;;;;;5114060;28;20023;-59
2021/01/21 03:36:38;;;;;;;45.10;28.85;;;17.40;50.40;;;;;;5113955;28;20030;-59
2021/01/21 03:39:04;;;;;;;45.78;28.02;;;17.10;51.00;;;;;;5113909;28;20429;-59
2021/01/21 03:41:30;;;;;;;44.53;29.20;;;17.10;51.10;;;;;;5113789;28;20039;-59
2021/01/21 03:43:55;;;;;;;41.13;27.40;;;17.10;51.10;;;;;;5113929;28;20050;-60
2021/01/21 03:46:21;;;;;;;45.08;28.02;;;17.00;51.10;;;;;;5114597;28;20062;-59
2021/01/21 03:48:47;;;;;;;40.22;26.98;;;17.00;51.10;;;;;;5118277;28;20461;-59
2021/01/21 03:51:12;;;;;;;44.45;27.92;;;17.00;51.20;;;;;;5118300;28;20457;-59
2021/01/21 03:53:38;;;;;;;42.22;27.38;;;17.00;51.20;;;;;;5118056;28;20461;-59
2021/01/21 03:56:04;;;;;;;42.35;25.88;;;16.90;51.20;;;;;;5118051;28;20469;-59
2021/01/21 03:58:30;;;;;;;42.42;26.05;;;16.90;51.20;;;;;;5117730;28;20030;-60
2021/01/21 04:00:55;;;;;;;41.65;25.10;;;16.90;51.20;;;;;;5117998;28;20020;-59
2021/01/21 04:03:21;;;;;;;39.45;26.17;;;16.90;51.20;;;;;;5117864;28;20077;-59
2021/01/21 04:05:46;;;;;;;42.17;25.88;;;16.90;51.20;;;;;;5117816;28;20069;-59
2021/01/21 04:08:12;;;;;;;37.10;25.30;;;16.90;51.20;;;;;;5117953;28;20533;-59
2021/01/21 04:10:38;;;;;;;41.80;26.38;;;17.20;50.80;;;;;;5117887;28;20023;-59
2021/01/21 04:13:03;;;;;;;42.72;25.60;;;17.30;50.40;;;;;;5117531;28;20055;-59
2021/01/21 04:15:29;;;;;;;41.22;25.35;;;17.50;50.20;;;;;;5115510;28;20542;-59
2021/01/21 04:17:54;;;;;;;36.95;24.52;;;17.60;50.00;;;;;;5117374;28;20027;-60
2021/01/21 04:20:20;;;;;;;34.90;22.50;;;17.70;49.90;;;;;;5117331;28;20027;-59
2021/01/21 04:22:46;;;;;;;40.13;26.05;;;17.50;49.10;;;;;;5117490;28;20043;-59
2021/01/21 04:25:12;;;;;;;38.65;24.17;;;17.70;50.00;;;;;;5117475;28;20024;-59
2021/01/21 04:27:38;;;;;;;37.72;23.13;;;17.70;50.00;;;;;;5117161;28;20085;-59
2021/01/21 04:30:05;;;;;;;37.63;23.85;;;17.80;49.80;;;;;;5118008;28;20454;-59
2021/01/21 04:32:30;;;;;;;36.92;23.90;;;17.80;49.70;;;;;;5117382;28;20058;-59
2021/01/21 04:34:56;;;;;;;36.28;21.67;;;17.90;49.60;;;;;;5117325;28;20485;-59
2021/01/21 04:37:22;;;;;;;36.30;23.52;;;17.80;49.60;;;;;;5117082;28;20027;-60
2021/01/21 04:39:47;;;;;;;36.15;22.85;;;17.10;48.80;;;;;;5117318;28;20042;-59
2021/01/21 04:42:13;;;;;;;32.75;21.60;;;17.80;49.80;;;;;;5117041;28;20032;-59
2021/01/21 04:44:39;;;;;;;38.42;22.88;;;17.80;49.80;;;;;;5117136;28;20023;-59
2021/01/21 04:47:06;;;;;;;35.95;23.23;;;17.70;49.80;;;;;;5116891;28;20425;-59
2021/01/21 04:49:32;;;;;;;37.22;22.85;;;17.70;49.90;;;;;;5116993;28;20023;-60
2021/01/21 04:52:01;;;;;;;34.95;22.67;;;17.70;50.00;;;;;;5117001;28;20500;-59
2021/01/21 04:54:35;;;;;;;33.75;21.00;;;17.60;50.00;;;;;;5116886;28;20028;-59
2021/01/21 04:57:03;;;;;;;34.20;21.73;;;17.60;50.00;;;;;;5117526;28;20028;-59
2021/01/21 04:59:35;;;;;;;31.98;21.58;;;17.60;50.10;;;;;;5116581;28;20392;-59
2021/01/21 05:02:05;;;;;;;32.13;21.45;;;17.60;50.20;;;;;;5116712;28;20122;-60
2021/01/21 05:04:31;;;;;;;;;;;17.50;50.30;;;;;;5117309;28;20420;-59
2021/01/21 05:06:57;;;;;;;29.77;20.42;;;17.50;50.30;;;;;;5116599;28;19904;-59
2021/01/21 05:09:23;;;;;;;32.03;19.65;;;17.50;50.40;;;;;;5116671;28;20023;-59
2021/01/21 05:11:49;;;;;;;29.98;20.30;;;17.60;50.30;;;;;;5116516;28;20062;-59
2021/01/21 05:14:16;;;;;;;31.10;20.40;;;17.60;50.10;;;;;;5116278;28;20031;-59
2021/01/21 05:16:43;;;;;;;32.00;19.85;;;17.70;49.90;;;;;;5116755;28;20027;-59
2021/01/21 05:19:13;;;;;;;30.58;19.00;;;17.80;49.70;;;;;;5116189;28;20032;-59
2021/01/21 05:21:42;;;;;;;30.23;20.70;;;17.70;49.90;;;;;;5116133;28;20554;-60
2021/01/21 05:24:11;;;;;;;27.50;18.60;;;17.80;50.00;;;;;;5116307;28;20051;-59
2021/01/21 05:26:43;;;;;;;30.17;19.60;;;17.90;49.80;;;;;;5116498;28;20023;-59
2021/01/21 05:29:12;;;;;;;28.23;20.48;;;18.00;49.70;;;;;;5116100;28;20109;-59
2021/01/21 05:31:38;;;;;;;27.35;20.05;;;18.10;49.50;;;;;;5116269;28;20024;-59
2021/01/21 05:34:11;;;;;;;29.70;18.63;;;18.20;49.40;;;;;;5116098;28;20476;-60
2021/01/21 05:36:42;;;;;;;28.63;17.95;;;18.20;49.20;;;;;;5116629;28;20027;-59
2021/01/21 05:39:09;;;;;;;27.73;18.60;;;18.30;48.90;;;;;;5116416;28;20416;-59
2021/01/21 05:41:37;;;;;;;30.02;19.08;;;18.40;48.70;;;;;;5115940;28;20062;-59
2021/01/21 05:44:05;;;;;;;26.30;17.48;;;18.50;48.60;;;;;;5115876;28;20415;-59
2021/01/21 05:46:33;;;;;;;28.15;19.15;;;18.60;48.40;;;;;;5115927;28;20036;-59
2021/01/21 05:49:00;;;;;;;29.00;18.88;;;18.70;48.30;;;;;;5115694;28;20027;-59
2021/01/21 05:51:27;;;;;;;27.50;17.27;;;18.70;48.20;;;;;;5115705;28;20030;-59
2021/01/21 05:53:54;;;;;;;25.92;16.40;;;18.80;48.10;;;;;;5115863;28;20028;-59
2021/01/21 05:56:22;;;;;;;27.30;17.23;;;18.80;48.00;;;;;;5115809;28;20038;-59
2021/01/21 05:58:50;;;;;;;24.05;16.20;;;18.80;47.90;;;;;;5115795;28;20024;-59
2021/01/21 06:01:16;;;;;;;22.75;16.80;;;18.90;47.80;;;;;;5115522;28;20023;-59
2021/01/21 06:03:41;;;;;;;25.20;17.85;;;18.90;47.80;;;;;;5115702;28;20028;-59
2021/01/21 06:06:08;;;;;;;24.90;16.77;;;18.90;47.70;;;;;;5115613;28;20479;-59
2021/01/21 06:08:39;;;;;;;23.67;17.02;;;19.00;47.70;;;;;;5115646;28;20023;-59
2021/01/21 06:11:09;;;;;;;26.50;16.73;;;19.00;47.70;;;;;;5114822;28;20114;-59
2021/01/21 06:13:44;;;;;;;24.13;16.15;;;19.10;47.70;;;;;;5115377;28;20031;-60
2021/01/21 06:16:13;;;;;;;21.13;15.80;;;19.10;47.50;;;;;;5113057;28;20393;-59
2021/01/21 06:18:39;;;;;;;23.50;15.38;;;19.20;47.40;;;;;;5115936;28;20051;-59
2021/01/21 06:21:08;;;;;;;25.33;15.95;;;19.20;47.50;;;;;;5115095;28;20104;-59
2021/01/21 06:23:35;;;;;;;21.92;15.68;;;19.10;47.50;;;;;;5115071;28;20397;-59
2021/01/21 06:26:01;;;;;;;20.98;15.60;;;19.10;47.60;;;;;;5115023;28;20030;-59
2021/01/21 06:28:29;;;;;;;21.83;14.90;;;19.10;47.70;;;;;;5114876;28;20565;-59
2021/01/21 06:30:59;;;;;;;21.30;14.23;;;19.00;47.90;;;;;;5115132;27;20055;-60
2021/01/21 06:33:40;;;;;;;26.45;16.25;;;18.90;48.20;;;;;;5115365;28;20488;-59
2021/01/21 06:36:08;;;;;;;23.30;15.50;;;18.80;48.50;;;;;;5114805;28;20059;-59
2021/01/21 06:38:43;;;;;;;21.30;14.82;;;18.80;48.70;;;;;;5114824;28;20385;-59
2021/01/21 06:41:15;;;;;;;22.95;14.98;;;18.80;48.70;;;;;;5114814;28;20031;-59
2021/01/21 06:43:42;;;;;;;22.05;14.77;;;18.70;48.70;;;;;;5115028;28;20043;-59
2021/01/21 06:46:08;;;;;;;22.23;13.90;;;18.70;48.80;;;;;;5114889;28;20035;-58
2021/01/21 06:48:34;;;;;;;20.63;14.15;;;18.70;48.70;;;;;;5114551;28;20027;-59
2021/01/21 06:51:06;;;;;;;23.08;14.15;;;18.70;48.70;;;;;;5114323;28;20031;-59
2021/01/21 06:53:33;;;;;;;21.13;14.20;;;18.60;48.80;;;;;;5115181;28;20031;-60
2021/01/21 06:55:59;;;;;;;21.63;14.32;;;18.50;48.90;;;;;;5114363;28;20027;-58
2021/01/21 06:58:44;;;;;;;20.45;15.15;;;18.50;48.90;;;;;;5114885;28;20457;-58
2021/01/21 07:01:32;;;;;;;17.88;12.73;;;18.30;48.90;;;;;;5114607;28;20031;-58
2021/01/21 07:04:21;;;;;;;20.85;13.73;;;18.30;49.20;;;;;;5115422;28;20035;-59
2021/01/21 07:06:50;;;;;;;18.20;13.50;;;18.30;49.30;;;;;;5106485;28;20492;-59
2021/01/21 07:09:18;;;;;;;21.10;13.73;;;18.30;49.50;;;;;;5114224;28;20028;-59
2021/01/21 07:11:46;;;;;;;19.65;13.63;;;18.20;49.40;;;;;;5114428;28;20389;-59
2021/01/21 07:14:14;;;;;;;17.35;13.13;;;18.20;49.60;;;;;;5113997;28;20034;-59
2021/01/21 07:16:40;;;;;;;18.30;13.65;;;18.20;49.60;;;;;;5114305;28;20024;-59
2021/01/21 07:19:06;;;;;;;18.30;12.82;;;18.20;49.50;;;;;;5114118;28;20420;-59
2021/01/21 07:21:35;;;;;;;19.10;12.77;;;18.20;49.50;;;;;;5113264;28;20035;-59
2021/01/21 07:24:03;;;;;;;17.40;13.05;;;18.30;49.40;;;;;;5114237;28;20019;-59
2021/01/21 07:26:35;;;;;;;19.80;13.15;;;18.30;49.10;;;;;;5113966;28;20028;-59
2021/01/21 07:29:01;;;;;;;18.55;13.07;;;18.40;48.90;;;;;;5113950;28;20052;-59
2021/01/21 07:31:46;;;;;;;17.83;12.25;;;18.50;49.00;;;;;;5114032;28;20047;-57
2021/01/21 07:34:50;;;;;;;22.75;14.05;;;18.50;49.00;;;;;;5114057;28;20049;-58
2021/01/21 07:37:42;;;;;;;28.75;13.82;;;18.70;50.60;;;;;;5071283;28;20029;-59
2021/01/21 07:40:11;;;;;;;25.02;13.82;;;18.70;49.60;;;;;;5071293;28;20378;-57
2021/01/21 07:42:37;;;;;;;24.35;14.10;;;18.70;50.60;;;;;;5099485;28;20107;-58
2021/01/21 07:45:15;;;;;;;25.45;15.07;;;18.70;49.40;;;;;;5113338;28;20520;-60
2021/01/21 07:47:48;;;;;;;23.60;12.68;;;18.70;49.60;;;;;;5114313;28;20095;-60
2021/01/21 07:50:21;;;;;;;23.80;13.60;;;18.70;49.50;;;;;;5114244;28;20024;-57
2021/01/21 07:52:48;;;;;;;39.85;23.05;;;18.90;49.60;;;;;;5113716;28;20024;-56
2021/01/21 07:55:23;;;;;;;108.63;59.30;;;19.00;49.00;;;;;;5113688;28;20031;-57
2021/01/21 07:57:49;;;;;;;124.32;71.45;;;19.00;48.50;;;;;;5113827;28;20111;-61
2021/01/21 08:00:15;;;;;;;161.32;83.32;;;18.90;48.20;;;;;;5113818;28;20063;-58
2021/01/21 08:02:48;;;;;;;143.57;80.10;;;18.80;47.90;;;;;;5113663;28;20059;-58
2021/01/21 08:05:18;;;;;;;134.25;73.60;;;18.40;44.40;;;;;;5112905;28;20438;-65
2021/01/21 08:07:50;;;;;;;106.38;61.40;;;18.50;45.30;;;;;;5113913;28;20024;-59
2021/01/21 08:10:18;;;;;;;119.00;58.67;;;18.40;44.80;;;;;;5113729;28;20038;-59
2021/01/21 08:12:55;;;;;;;102.30;51.85;;;18.30;45.00;;;;;;5110779;28;20052;-61
2021/01/21 08:15:22;;;;;;;89.75;48.25;;;18.30;45.00;;;;;;5112163;28;20035;-65
2021/01/21 08:17:49;;;;;;;76.53;44.83;;;18.30;45.00;;;;;;5112967;28;20024;-59
2021/01/21 08:20:19;;;;;;;72.15;43.97;;;18.30;45.20;;;;;;5113123;28;20028;-60
2021/01/21 08:22:59;;;;;;;64.63;38.35;;;18.30;45.40;;;;;;5110775;28;20042;-55
2021/01/21 08:25:29;;;;;;;55.85;31.55;;;18.40;45.60;;;;;;5112283;28;20081;-59
2021/01/21 08:27:56;;;;;;;53.55;31.60;;;18.50;45.90;;;;;;5112865;28;20024;-61
2021/01/21 08:30:26;;;;;;;48.47;27.17;;;18.70;45.40;;;;;;5113129;28;20030;-58
2021/01/21 08:33:08;;;;;;;39.55;25.23;;;18.70;45.80;;;;;;5115174;28;20031;-59
2021/01/21 08:35:37;;;;;;;43.70;26.55;;;18.80;45.70;;;;;;5114411;28;20055;-60
2021/01/21 08:38:05;;;;;;;41.67;25.63;;;18.80;45.60;;;;;;5114803;28;20493;-59
2021/01/21 08:40:32;;;;;;;39.05;22.90;;;18.70;45.50;;;;;;5114932;28;20452;-59
2021/01/21 08:42:59;;;;;;;38.92;22.92;;;18.60;45.40;;;;;;5114340;28;20042;-59
2021/01/21 08:45:29;;;;;;;37.47;24.65;;;18.50;45.30;;;;;;5115265;28;20020;-60
2021/01/21 08:47:56;;;;;;;40.00;24.33;;;18.40;45.00;;;;;;5114170;27;20069;-59
2021/01/21 08:50:22;;;;;;;36.20;24.50;;;18.30;44.60;;;;;;5115718;28;20115;-59
2021/01/21 08:53:03;;;;;;;32.10;22.13;;;18.30;44.40;;;;;;5117363;28;20027;-59
2021/01/21 08:55:43;;;;;;;30.55;22.88;;;18.30;44.00;;;;;;5116831;28;20059;-58
2021/01/21 08:58:14;;;;;;;34.03;22.65;;;18.20;44.10;;;;;;5116332;28;20032;-58
2021/01/21 09:01:00;;;;;;;33.85;22.95;;;18.20;44.30;;;;;;5116957;28;20024;-59
2021/01/21 09:03:36;;;;;;;35.10;24.02;;;18.30;44.40;;;;;;5116599;28;20047;-59
2021/01/21 09:06:03;;;;;;;34.25;23.25;;;18.20;44.10;;;;;;5116369;28;20031;-58
2021/01/21 09:08:29;;;;;;;35.55;23.15;;;18.20;44.50;;;;;;5116737;28;20024;-59
2021/01/21 09:10:56;;;;;;;34.00;22.95;;;18.20;44.60;;;;;;5116917;28;20428;-58
2021/01/21 09:13:22;;;;;;;28.90;21.60;;;18.10;44.80;;;;;;5116215;28;20027;-59
2021/01/21 09:15:52;;;;;;;33.50;22.08;;;18.10;45.00;;;;;;5116519;28;20055;-59
2021/01/21 09:18:19;;;;;;;29.90;21.37;;;18.00;45.20;;;;;;5116502;28;20055;-59
2021/01/21 09:20:46;;;;;;;28.17;20.10;;;18.00;45.30;;;;;;5115959;28;20458;-59
2021/01/21 09:23:20;;;;;;;27.48;19.60;;;18.00;45.60;;;;;;5116269;28;20127;-59
2021/01/21 09:25:49;;;;;;;28.30;20.02;;;18.00;45.70;;;;;;5116299;28;20019;-58
2021/01/21 09:28:16;;;;;;;28.40;19.92;;;18.10;45.80;;;;;;5116054;28;20027;-58
2021/01/21 09:30:43;;;;;;;28.45;19.42;;;18.20;45.70;;;;;;5116284;28;20032;-59
2021/01/21 09:33:10;;;;;;;29.85;19.25;;;18.30;45.60;;;;;;5114569;28;20464;-59
2021/01/21 09:35:37;;;;;;;25.33;18.80;;;18.30;45.60;;;;;;5114530;28;20023;-59
2021/01/21 09:38:04;;;;;;;28.52;20.50;;;18.40;45.50;;;;;;5115554;28;20461;-59
2021/01/21 09:40:32;;;;;;;27.92;19.08;;;18.50;45.60;;;;;;5115549;28;20024;-59
2021/01/21 09:43:00;;;;;;;27.02;17.95;;;18.50;45.60;;;;;;5114912;28;20067;-59
2021/01/21 09:45:26;;;;;;;26.30;18.05;;;18.50;45.50;;;;;;5113378;28;20362;-58
2021/01/21 09:47:53;;;;;;;29.30;17.23;;;18.50;45.50;;;;;;5115220;28;20031;-60
2021/01/21 09:50:19;;;;;;;28.33;17.52;;;18.50;45.60;;;;;;5114983;28;20147;-59
2021/01/21 09:52:45;;;;;;;26.17;17.42;;;18.50;45.70;;;;;;5115464;28;20507;-59
2021/01/21 09:55:12;;;;;;;28.42;17.10;;;18.50;45.90;;;;;;5115394;28;20016;-59
2021/01/21 09:57:39;;;;;;;27.65;17.70;;;18.40;46.30;;;;;;5114857;27;20027;-59
2021/01/21 10:00:05;;;;;;;24.60;16.02;;;18.50;46.40;;;;;;5112844;28;20102;-59
2021/01/21 10:02:31;;;;;;;25.02;16.73;;;18.50;46.40;;;;;;5114862;28;20036;-60
2021/01/21 10:04:56;;;;;;;21.95;15.70;;;18.50;46.20;;;;;;5114765;28;20068;-59
2021/01/21 10:07:22;;;;;;;21.95;15.77;;;18.60;46.30;;;;;;5115018;28;20392;-59
2021/01/21 10:09:48;;;;;;;22.95;16.08;;;18.50;46.20;;;;;;5115217;28;20053;-59
2021/01/21 10:12:13;;;;;;;20.55;14.98;;;18.50;46.30;;;;;;5114818;28;20362;-58
2021/01/21 10:14:39;;;;;;;23.33;15.63;;;18.40;46.50;;;;;;5114039;28;20023;-59
2021/01/21 10:17:07;;;;;;;21.00;14.50;;;18.40;46.60;;;;;;5115415;28;20019;-59
2021/01/21 10:19:33;;;;;;;20.55;14.15;;;18.30;46.70;;;;;;5114883;28;20032;-59
2021/01/21 10:22:00;;;;;;;23.40;15.52;;;18.30;46.80;;;;;;5115279;28;20431;-59
2021/01/21 10:24:27;;;;;;;24.00;14.70;;;18.20;46.90;;;;;;5115536;27;20381;-59
2021/01/21 10:26:52;;;;;;;22.23;13.80;;;18.20;47.00;;;;;;5114142;28;20485;-59
2021/01/21 10:29:21;;;;;;;20.42;14.18;;;18.20;47.20;;;;;;5115297;28;20062;-59
2021/01/21 10:31:47;;;;;;;22.02;15.30;;;18.20;47.20;;;;;;5112926;28;20465;-59
2021/01/21 10:34:12;;;;;;;19.88;15.18;;;18.20;47.40;;;;;;5113291;28;20111;-59
2021/01/21 10:36:38;;;;;;;21.33;14.57;;;18.20;47.40;;;;;;5114866;27;20027;-59
2021/01/21 10:39:07;;;;;;;20.08;14.45;;;18.20;47.60;;;;;;5114309;28;20034;-59
2021/01/21 10:41:33;;;;;;;20.15;14.05;;;18.20;47.60;;;;;;5114189;28;20457;-59
2021/01/21 10:43:59;;;;;;;18.42;13.45;;;18.20;48.20;;;;;;5114985;28;20080;-59
2021/01/21 10:46:24;;;;;;;22.23;15.60;;;18.30;47.60;;;;;;5113306;28;20646;-59
2021/01/21 10:48:50;;;;;;;21.30;13.65;;;18.30;47.50;;;;;;5114350;28;20111;-59
2021/01/21 10:51:16;;;;;;;19.20;14.38;;;18.40;47.30;;;;;;5114716;28;20024;-59
2021/01/21 10:53:42;;;;;;;19.65;13.68;;;18.50;47.20;;;;;;5114635;28;20086;-59
2021/01/21 10:56:07;;;;;;;21.38;13.20;;;18.60;47.00;;;;;;5113875;28;20093;-59
2021/01/21 10:58:33;;;;;;;19.60;13.05;;;18.70;47.00;;;;;;5114735;28;20423;-59
2021/01/21 11:00:59;;;;;;;20.10;12.93;;;18.60;46.90;;;;;;5114334;28;20108;-59
2021/01/21 11:03:24;;;;;;;20.27;13.73;;;18.70;47.10;;;;;;5114012;28;20473;-59
2021/01/21 11:05:50;;;;;;;17.38;11.95;;;18.70;47.00;;;;;;5114498;28;20032;-59
2021/01/21 11:08:16;;;;;;;21.30;13.57;;;18.80;46.90;;;;;;5114210;28;20059;-59
2021/01/21 11:10:41;;;;;;;18.92;12.73;;;18.90;46.90;;;;;;5113797;28;20034;-59
2021/01/21 11:13:08;;;;;;;20.35;12.60;;;18.90;46.70;;;;;;5114190;28;20413;-59
2021/01/21 11:15:34;;;;;;;16.95;12.43;;;18.90;46.70;;;;;;5114519;28;20420;-59
2021/01/21 11:18:00;;;;;;;17.67;12.40;;;18.90;46.80;;;;;;5112997;28;20419;-59
2021/01/21 11:20:26;;;;;;;15.93;11.70;;;18.80;46.80;;;;;;5113891;28;20069;-59
2021/01/21 11:22:52;;;;;;;20.63;13.27;;;18.80;47.00;;;;;;5114015;28;20043;-59
2021/01/21 11:25:18;;;;;;;16.20;12.27;;;18.70;47.00;;;;;;5113345;28;20527;-59
2021/01/21 11:27:43;;;;;;;18.73;13.60;;;18.80;47.00;;;;;;5113874;28;20031;-59
2021/01/21 11:30:11;;;;;;;18.00;12.15;;;18.70;47.10;;;;;;5113949;28;20025;-59
2021/01/21 11:32:37;;;;;;;18.38;13.52;;;18.70;47.30;;;;;;5114161;28;20035;-59
2021/01/21 11:35:05;;;;;;;20.08;12.48;;;18.70;47.30;;;;;;5113425;28;20517;-59
2021/01/21 11:37:30;;;;;;;16.30;11.63;;;18.60;47.40;;;;;;5113925;28;20111;-59
2021/01/21 11:39:56;;;;;;;15.40;11.98;;;18.60;47.50;;;;;;5113434;28;20165;-59
2021/01/21 11:42:22;;;;;;;18.98;12.05;;;18.50;47.60;;;;;;5114000;28;20036;-60
2021/01/21 11:44:48;;;;;;;18.92;12.75;;;18.50;47.60;;;;;;5113889;28;20028;-62
2021/01/21 11:47:14;;;;;;;25.02;13.18;;;18.50;47.80;;;;;;5113574;28;20019;-62
2021/01/21 11:49:40;;;;;;;23.40;12.30;;;18.50;49.10;;;;;;5114074;28;20045;-65
2021/01/21 11:52:06;;;;;;;25.33;14.70;;;18.60;49.80;;;;;;5113926;28;20038;-60
2021/01/21 11:54:31;;;;;;;26.83;14.98;;;18.60;49.80;;;;;;5113479;28;20485;-59
2021/01/21 11:56:57;;;;;;;22.60;15.10;;;18.60;50.10;;;;;;5113889;28;20354;-59
2021/01/21 11:59:22;;;;;;;22.35;15.95;;;18.70;50.00;;;;;;5113881;28;20031;-68
2021/01/21 12:01:48;;;;;;;26.67;14.63;;;18.70;50.40;;;;;;5111861;28;20035;-61
2021/01/21 12:04:14;;;;;;;27.75;16.50;;;18.80;51.40;;;;;;5112545;28;20019;-59
2021/01/21 12:06:40;;;;;;;33.47;17.17;;;18.80;52.70;;;;;;5114033;28;20023;-58
2021/01/21 12:09:05;;;;;;;61.45;32.60;;;18.90;52.70;;;;;;5116932;28;20059;-58
2021/01/21 12:11:33;;;;;;;69.53;40.72;;;18.90;52.90;;;;;;5116206;28;20051;-58
2021/01/21 12:13:58;;;;;;;77.30;45.05;;;19.00;52.50;;;;;;5117410;28;20035;-59
2021/01/21 12:16:24;;;;;;;96.78;58.17;;;18.90;53.20;;;;;;5116791;28;20385;-60
2021/01/21 12:18:50;;;;;;;103.40;63.08;;;18.80;54.00;;;;;;5117659;28;20039;-58
2021/01/21 12:21:16;;;;;;;101.65;61.00;;;18.70;55.40;;;;;;5117854;28;20487;-59
2021/01/21 12:23:42;;;;;;;97.75;61.10;;;18.70;58.90;;;;;;5117011;28;20602;-58
2021/01/21 12:26:08;;;;;;;95.45;58.55;;;18.70;58.10;;;;;;5117328;28;20102;-56
2021/01/21 12:28:34;;;;;;;83.80;53.97;;;18.60;57.90;;;;;;5117287;28;20022;-56
2021/01/21 12:31:00;;;;;;;88.32;51.72;;;18.50;57.80;;;;;;5116279;28;20050;-64